createdAt,value
2023-03-07T00:02:13.127Z,9.40
2023-03-07T00:04:43.939Z,9.40
2023-03-07T00:07:11.168Z,9.40
2023-03-07T00:09:38.396Z,9.50
2023-03-07T00:12:06.710Z,9.50
2023-03-07T00:14:34.272Z,9.50
2023-03-07T00:17:01.751Z,9.50
2023-03-07T00:19:29.094Z,9.40
2023-03-07T00:21:56.555Z,9.50
2023-03-07T00:24:24.019Z,9.50
2023-03-07T00:26:51.318Z,9.50
2023-03-07T00:29:18.581Z,9.50
2023-03-07T00:31:45.973Z,9.40
2023-03-07T00:34:13.414Z,9.40
2023-03-07T00:36:40.651Z,9.40
2023-03-07T00:39:08.402Z,9.40
2023-03-07T00:41:35.693Z,9.30
2023-03-07T00:44:03.215Z,9.30
2023-03-07T00:46:30.589Z,9.30
2023-03-07T00:48:58.147Z,9.30
2023-03-07T00:51:25.580Z,9.30
2023-03-07T00:53:53.031Z,9.30
2023-03-07T00:56:24.100Z,9.20
2023-03-07T00:58:52.051Z,9.20
2023-03-07T01:01:22.603Z,9.20
2023-03-07T01:03:53.436Z,9.10
2023-03-07T01:06:23.319Z,9.10
2023-03-07T01:08:51.394Z,9.00
2023-03-07T01:11:19.405Z,9.00
2023-03-07T01:13:47.345Z,9.00
2023-03-07T01:16:19.459Z,9.00
2023-03-07T01:18:50.582Z,8.90
2023-03-07T01:21:24.541Z,8.90
2023-03-07T01:23:52.602Z,8.90
2023-03-07T01:26:22.463Z,8.80
2023-03-07T01:28:55.428Z,8.80
2023-03-07T01:31:23.786Z,8.80
2023-03-07T01:33:52.753Z,8.90
2023-03-07T01:36:30.568Z,8.80
2023-03-07T01:39:14.026Z,8.70
2023-03-07T01:41:49.120Z,8.60
2023-03-07T01:44:25.020Z,8.60
2023-03-07T01:46:57.281Z,8.60
2023-03-07T01:49:52.465Z,8.60
2023-03-07T01:52:29.462Z,8.50
2023-03-07T01:55:05.068Z,8.50
2023-03-07T01:57:37.114Z,8.50
2023-03-07T02:00:09.921Z,8.50
2023-03-07T02:02:47.522Z,8.50
2023-03-07T02:05:28.053Z,8.50
2023-03-07T02:07:58.718Z,8.60
2023-03-07T02:10:30.000Z,8.50
2023-03-07T02:12:57.710Z,8.50
2023-03-07T02:15:25.316Z,8.50
2023-03-07T02:17:53.594Z,8.50
2023-03-07T02:20:44.890Z,8.50
2023-03-07T02:23:30.317Z,8.50
2023-03-07T02:26:20.430Z,8.50
2023-03-07T02:28:48.456Z,8.50
2023-03-07T02:31:16.708Z,8.50
2023-03-07T02:33:44.108Z,8.40
2023-03-07T02:36:16.010Z,8.50
2023-03-07T02:39:01.593Z,8.50
2023-03-07T02:41:32.273Z,8.50
2023-03-07T02:44:02.729Z,8.40
2023-03-07T02:46:30.460Z,8.30
2023-03-07T02:48:57.848Z,8.30
2023-03-07T02:51:25.258Z,8.30
2023-03-07T02:53:52.553Z,8.30
2023-03-07T02:56:19.860Z,8.30
2023-03-07T02:58:47.156Z,8.30
2023-03-07T03:01:14.676Z,8.30
2023-03-07T03:03:42.358Z,8.30
2023-03-07T03:06:10.144Z,8.30
2023-03-07T03:08:37.412Z,8.30
2023-03-07T03:11:04.807Z,8.30
2023-03-07T03:13:32.295Z,8.30
2023-03-07T03:15:59.858Z,8.30
2023-03-07T03:18:31.043Z,8.20
2023-03-07T03:20:59.810Z,8.20
2023-03-07T03:23:28.601Z,8.30
2023-03-07T03:26:02.583Z,8.30
2023-03-07T03:28:31.905Z,8.30
2023-03-07T03:31:01.536Z,8.30
2023-03-07T03:33:30.342Z,8.30
2023-03-07T03:35:59.582Z,8.30
2023-03-07T03:38:27.432Z,8.10
2023-03-07T03:40:56.351Z,8.10
2023-03-07T03:43:23.608Z,8.10
2023-03-07T03:45:55.472Z,8.10
2023-03-07T03:48:23.970Z,8.10
2023-03-07T03:50:51.595Z,8.20
2023-03-07T03:53:19.220Z,8.30
2023-03-07T03:55:46.511Z,8.30
2023-03-07T03:58:13.734Z,8.40
2023-03-07T04:00:40.995Z,8.50
2023-03-07T04:03:08.345Z,8.40
2023-03-07T04:05:35.695Z,8.30
2023-03-07T04:08:03.059Z,8.30
2023-03-07T04:10:30.465Z,8.20
2023-03-07T04:12:57.708Z,8.10
2023-03-07T04:15:25.239Z,8.00
2023-03-07T04:17:52.583Z,8.00
2023-03-07T04:20:20.792Z,8.00
2023-03-07T04:22:48.887Z,8.10
2023-03-07T04:25:17.124Z,8.10
2023-03-07T04:27:44.669Z,8.10
2023-03-07T04:30:12.327Z,8.10
2023-03-07T04:32:40.351Z,8.10
2023-03-07T04:35:08.105Z,8.10
2023-03-07T04:37:35.329Z,8.10
2023-03-07T04:40:02.652Z,8.10
2023-03-07T04:42:29.857Z,8.10
2023-03-07T04:44:57.249Z,8.10
2023-03-07T04:47:25.437Z,8.10
2023-03-07T04:49:52.720Z,8.10
2023-03-07T04:52:20.377Z,8.10
2023-03-07T04:54:48.169Z,8.10
2023-03-07T04:57:15.431Z,8.10
2023-03-07T04:59:42.865Z,8.10
2023-03-07T05:02:13.035Z,8.10
2023-03-07T05:04:41.465Z,8.10
2023-03-07T05:07:09.079Z,8.10
2023-03-07T05:09:36.640Z,8.00
2023-03-07T05:12:05.117Z,8.00
2023-03-07T05:14:32.529Z,8.00
2023-03-07T05:16:59.836Z,8.10
2023-03-07T05:19:27.149Z,8.10
2023-03-07T05:21:54.514Z,8.00
2023-03-07T05:24:21.871Z,8.00
2023-03-07T05:26:49.348Z,8.00
2023-03-07T05:29:16.694Z,8.00
2023-03-07T05:31:43.993Z,7.90
2023-03-07T05:34:11.752Z,7.90
2023-03-07T05:36:40.164Z,7.80
2023-03-07T05:39:08.388Z,7.80
2023-03-07T05:41:36.531Z,7.80
2023-03-07T05:44:04.851Z,7.70
2023-03-07T05:46:32.743Z,7.50
2023-03-07T05:49:00.112Z,7.60
2023-03-07T05:51:28.143Z,7.50
2023-03-07T05:53:55.900Z,7.40
2023-03-07T05:56:24.081Z,7.40
2023-03-07T05:58:51.490Z,7.40
2023-03-07T06:01:19.293Z,7.30
2023-03-07T06:03:47.694Z,7.40
2023-03-07T06:06:15.123Z,7.40
2023-03-07T06:08:43.370Z,7.40
2023-03-07T06:11:11.598Z,7.40
2023-03-07T06:13:40.088Z,7.50
2023-03-07T06:16:07.531Z,7.50
2023-03-07T06:18:35.810Z,7.60
2023-03-07T06:21:05.796Z,7.60
2023-03-07T06:23:37.834Z,7.70
2023-03-07T06:26:12.362Z,7.80
2023-03-07T06:28:41.281Z,7.80
2023-03-07T06:31:17.339Z,7.90
2023-03-07T06:33:45.514Z,7.90
2023-03-07T06:36:16.849Z,7.90
2023-03-07T06:38:48.590Z,7.90
2023-03-07T06:41:16.222Z,8.00
2023-03-07T06:43:43.675Z,8.00
2023-03-07T06:46:11.230Z,8.10
2023-03-07T06:48:41.711Z,8.20
2023-03-07T06:51:13.609Z,8.30
2023-03-07T06:53:43.105Z,8.40
2023-03-07T06:56:10.450Z,8.40
2023-03-07T06:58:39.139Z,8.50
2023-03-07T07:01:07.974Z,8.50
2023-03-07T07:03:36.439Z,8.70
2023-03-07T07:06:03.924Z,9.00
2023-03-07T07:08:31.817Z,9.20
2023-03-07T07:11:00.174Z,9.50
2023-03-07T07:13:29.354Z,9.60
2023-03-07T07:15:57.189Z,9.60
2023-03-07T07:18:25.223Z,9.80
2023-03-07T07:20:56.693Z,10.20
2023-03-07T07:23:27.118Z,10.40
2023-03-07T07:25:55.048Z,10.40
2023-03-07T07:28:22.781Z,10.40
2023-03-07T07:30:50.154Z,10.30
2023-03-07T07:33:17.529Z,10.20
2023-03-07T07:35:48.459Z,10.20
2023-03-07T07:38:16.300Z,10.10
2023-03-07T07:40:44.960Z,10.00
2023-03-07T07:43:15.733Z,10.20
2023-03-07T07:45:48.399Z,10.10
2023-03-07T07:48:19.965Z,10.20
2023-03-07T07:50:48.391Z,10.30
2023-03-07T07:53:18.654Z,10.40
2023-03-07T07:55:47.278Z,10.60
2023-03-07T07:58:14.631Z,11.10
2023-03-07T08:00:42.028Z,11.80
2023-03-07T08:03:09.337Z,12.40
2023-03-07T08:05:36.748Z,12.80
2023-03-07T08:08:04.308Z,13.10
2023-03-07T08:10:31.775Z,13.20
2023-03-07T08:12:59.032Z,13.20
2023-03-07T08:15:26.332Z,13.10
2023-03-07T08:17:53.610Z,12.90
2023-03-07T08:20:22.473Z,12.90
2023-03-07T08:22:50.726Z,13.00
2023-03-07T08:25:21.560Z,12.70
2023-03-07T08:27:53.107Z,12.60
2023-03-07T08:30:21.657Z,12.60
2023-03-07T08:32:50.707Z,12.60
2023-03-07T08:35:18.671Z,12.50
2023-03-07T08:37:49.043Z,12.60
2023-03-07T08:40:16.967Z,12.60
2023-03-07T08:42:44.316Z,12.60
2023-03-07T08:45:12.136Z,12.70
2023-03-07T08:47:39.371Z,12.70
2023-03-07T08:50:07.376Z,12.40
2023-03-07T08:52:34.634Z,12.30
2023-03-07T08:55:01.986Z,12.40
2023-03-07T08:57:29.269Z,12.20
2023-03-07T08:59:56.579Z,12.30
2023-03-07T09:02:24.062Z,12.60
2023-03-07T09:04:51.503Z,12.80
2023-03-07T09:07:19.315Z,12.80
2023-03-07T09:09:46.537Z,12.90
2023-03-07T09:12:14.880Z,12.90
2023-03-07T09:14:42.425Z,13.10
2023-03-07T09:17:09.831Z,13.00
2023-03-07T09:19:37.213Z,13.10
2023-03-07T09:22:04.677Z,13.40
2023-03-07T09:24:32.145Z,13.60
2023-03-07T09:26:59.389Z,13.90
2023-03-07T09:29:26.851Z,14.20
2023-03-07T09:31:54.645Z,14.60
2023-03-07T09:34:21.903Z,14.90
2023-03-07T09:36:51.558Z,15.10
2023-03-07T09:39:18.907Z,14.90
2023-03-07T09:42:18.448Z,14.90
2023-03-07T09:45:14.642Z,14.80
2023-03-07T09:48:32.918Z,14.90
2023-03-07T09:51:12.161Z,15.10
2023-03-07T09:53:43.946Z,15.30
2023-03-07T09:56:37.424Z,15.50
2023-03-07T09:59:24.577Z,15.40
2023-03-07T10:02:00.798Z,15.50
2023-03-07T10:04:33.400Z,15.70
2023-03-07T10:07:03.942Z,15.70
2023-03-07T10:09:31.358Z,16.10
2023-03-07T10:12:11.490Z,16.30
2023-03-07T10:15:03.705Z,16.10
2023-03-07T10:18:08.930Z,15.70
2023-03-07T10:20:54.808Z,15.40
2023-03-07T10:23:41.231Z,15.50
2023-03-07T10:26:42.329Z,15.60
2023-03-07T10:29:22.413Z,15.90
2023-03-07T10:31:56.666Z,16.50
2023-03-07T10:34:30.740Z,16.80
2023-03-07T10:37:20.306Z,16.80
2023-03-07T10:39:52.688Z,16.40
2023-03-07T10:42:23.182Z,16.60
2023-03-07T10:44:51.727Z,16.80
2023-03-07T10:47:23.770Z,17.00
2023-03-07T10:49:55.778Z,17.20
2023-03-07T10:52:34.861Z,17.10
2023-03-07T10:55:34.015Z,17.50
2023-03-07T10:58:22.602Z,17.60
2023-03-07T11:01:01.945Z,17.40
2023-03-07T11:03:53.829Z,17.50
2023-03-07T11:06:40.321Z,17.30
2023-03-07T11:09:18.478Z,17.60
2023-03-07T11:11:53.989Z,17.70
2023-03-07T11:14:22.058Z,17.70
2023-03-07T11:16:55.777Z,17.50
2023-03-07T11:19:43.735Z,17.40
2023-03-07T11:22:21.961Z,17.00
2023-03-07T11:24:56.511Z,17.00
2023-03-07T11:27:36.263Z,17.20
2023-03-07T11:30:22.049Z,17.30
2023-03-07T11:33:17.842Z,17.30
2023-03-07T11:36:09.344Z,17.20
2023-03-07T11:39:02.895Z,17.10
2023-03-07T11:41:33.602Z,17.20
2023-03-07T11:44:19.033Z,17.00
2023-03-07T11:46:58.004Z,17.10
2023-03-07T11:49:42.996Z,17.00
2023-03-07T11:52:24.350Z,17.00
2023-03-07T11:55:24.217Z,17.00
2023-03-07T11:58:10.333Z,16.70
2023-03-07T12:00:58.909Z,16.50
2023-03-07T12:03:50.468Z,16.40
2023-03-07T12:06:49.889Z,16.20
2023-03-07T12:09:40.133Z,16.30
2023-03-07T12:12:28.885Z,16.30
2023-03-07T12:14:59.255Z,16.10
2023-03-07T12:18:03.577Z,16.10
2023-03-07T12:21:03.753Z,16.10
2023-03-07T12:23:39.068Z,16.20
2023-03-07T12:26:20.800Z,16.20
2023-03-07T12:29:11.029Z,16.40
2023-03-07T12:31:43.570Z,16.50
2023-03-07T12:34:10.968Z,16.60
2023-03-07T12:36:44.729Z,16.60
2023-03-07T12:39:24.587Z,16.70
2023-03-07T12:42:17.985Z,16.60
2023-03-07T12:44:59.813Z,16.60
2023-03-07T12:47:36.304Z,16.50
2023-03-07T12:50:35.033Z,16.40
2023-03-07T12:53:23.315Z,16.20
2023-03-07T12:56:15.286Z,16.20
2023-03-07T12:59:04.191Z,16.20
2023-03-07T13:01:40.314Z,16.20
2023-03-07T13:04:07.830Z,16.30
2023-03-07T13:06:39.973Z,16.20
2023-03-07T13:09:13.642Z,16.30
2023-03-07T13:12:09.488Z,16.20
2023-03-07T13:14:51.647Z,16.10
2023-03-07T13:17:31.243Z,16.20
2023-03-07T13:19:59.715Z,16.10
2023-03-07T13:22:27.320Z,16.00
2023-03-07T13:24:56.616Z,16.00
2023-03-07T13:27:53.744Z,16.10
2023-03-07T13:30:21.979Z,16.00
2023-03-07T13:32:52.158Z,16.00
2023-03-07T13:35:28.887Z,16.00
2023-03-07T13:37:57.473Z,16.00
2023-03-07T13:40:30.331Z,15.90
2023-03-07T13:42:57.729Z,15.90
2023-03-07T13:45:40.667Z,16.10
2023-03-07T13:48:15.481Z,16.00
2023-03-07T13:50:42.927Z,15.90
2023-03-07T13:53:20.951Z,15.90
2023-03-07T13:55:54.655Z,15.90
2023-03-07T13:58:25.384Z,16.00
2023-03-07T14:01:00.468Z,16.20
2023-03-07T14:03:32.340Z,16.30
2023-03-07T14:06:15.267Z,16.10
2023-03-07T14:08:43.043Z,16.10
2023-03-07T14:11:24.414Z,16.00
2023-03-07T14:14:08.058Z,16.00
2023-03-07T14:16:41.271Z,16.00
2023-03-07T14:19:36.369Z,16.00
2023-03-07T14:22:09.874Z,16.00
2023-03-07T14:24:46.432Z,16.00
2023-03-07T14:27:15.645Z,16.00
2023-03-07T14:29:56.850Z,16.00
2023-03-07T14:32:29.933Z,15.90
2023-03-07T14:34:58.247Z,15.90
2023-03-07T14:37:32.665Z,16.00
2023-03-07T14:39:59.939Z,16.00
2023-03-07T14:43:00.652Z,16.00
2023-03-07T14:45:49.748Z,15.90
2023-03-07T14:48:31.620Z,16.00
2023-03-07T14:51:06.936Z,15.80
2023-03-07T14:53:35.084Z,15.70
2023-03-07T14:56:07.603Z,15.70
2023-03-07T14:58:37.027Z,15.60
2023-03-07T15:01:07.018Z,15.60
2023-03-07T15:03:34.272Z,15.60
2023-03-07T15:06:02.952Z,15.70
2023-03-07T15:08:38.153Z,15.60
2023-03-07T15:11:20.418Z,15.60
2023-03-07T15:13:58.267Z,15.70
2023-03-07T15:16:41.388Z,15.60
2023-03-07T15:19:44.877Z,15.50
2023-03-07T15:22:19.887Z,15.50
2023-03-07T15:24:49.824Z,15.40
2023-03-07T15:27:23.248Z,15.40
2023-03-07T15:29:50.892Z,15.40
2023-03-07T15:32:40.109Z,15.40
2023-03-07T15:35:13.037Z,15.30
2023-03-07T15:38:07.273Z,15.40
2023-03-07T15:40:36.029Z,15.40
2023-03-07T15:43:04.517Z,15.40
2023-03-07T15:45:40.873Z,15.30
2023-03-07T15:48:10.521Z,15.30
2023-03-07T15:50:37.885Z,15.20
2023-03-07T15:53:33.602Z,15.10
2023-03-07T15:56:05.067Z,15.10
2023-03-07T15:58:35.160Z,15.00
2023-03-07T16:01:23.074Z,15.10
2023-03-07T16:03:58.069Z,15.10
2023-03-07T16:06:45.043Z,15.10
2023-03-07T16:09:17.523Z,15.10
2023-03-07T16:11:46.597Z,15.00
2023-03-07T16:14:23.887Z,15.00
2023-03-07T16:16:53.281Z,15.00
2023-03-07T16:19:20.742Z,14.90
2023-03-07T16:21:48.141Z,14.90
2023-03-07T16:24:15.465Z,14.80
2023-03-07T16:26:44.183Z,14.70
2023-03-07T16:29:16.731Z,14.70
2023-03-07T16:31:44.695Z,14.70
2023-03-07T16:34:23.150Z,14.60
2023-03-07T16:36:50.442Z,14.60
2023-03-07T16:39:18.554Z,14.70
2023-03-07T16:41:48.782Z,14.60
2023-03-07T16:44:21.744Z,14.60
2023-03-07T16:47:03.743Z,14.50
2023-03-07T16:49:31.355Z,14.60
2023-03-07T16:52:05.829Z,14.60
2023-03-07T16:54:34.413Z,14.50
2023-03-07T16:57:02.542Z,14.50
2023-03-07T16:59:34.866Z,14.40
2023-03-07T17:02:09.873Z,14.40
2023-03-07T17:04:37.105Z,14.30
2023-03-07T17:07:05.583Z,14.30
2023-03-07T17:09:33.372Z,14.30
2023-03-07T17:12:00.681Z,14.20
2023-03-07T17:14:28.253Z,14.10
2023-03-07T17:16:55.523Z,14.20
2023-03-07T17:19:28.223Z,14.20
2023-03-07T17:21:58.567Z,14.20
2023-03-07T17:24:27.219Z,14.10
2023-03-07T17:26:56.383Z,14.00
2023-03-07T17:29:29.029Z,14.00
2023-03-07T17:31:56.573Z,13.90
2023-03-07T17:34:29.803Z,13.90
2023-03-07T17:36:57.863Z,13.90
2023-03-07T17:39:25.140Z,13.80
2023-03-07T17:41:52.388Z,13.80
2023-03-07T17:44:19.733Z,13.70
2023-03-07T17:46:47.378Z,13.70
2023-03-07T17:49:15.204Z,13.80
2023-03-07T17:51:42.556Z,13.80
2023-03-07T17:54:09.942Z,13.70
2023-03-07T17:56:37.806Z,13.60
2023-03-07T17:59:05.682Z,13.60
2023-03-07T18:01:34.918Z,13.50
2023-03-07T18:04:04.198Z,13.50
2023-03-07T18:06:33.969Z,13.50
2023-03-07T18:09:02.292Z,13.40
2023-03-07T18:11:29.610Z,13.40
2023-03-07T18:13:57.301Z,13.30
2023-03-07T18:16:24.764Z,13.40
2023-03-07T18:18:59.505Z,13.30
2023-03-07T18:21:29.994Z,13.30
2023-03-07T18:23:57.884Z,13.30
2023-03-07T18:26:25.310Z,13.30
2023-03-07T18:28:53.904Z,13.30
2023-03-07T18:31:28.665Z,13.30
2023-03-07T18:33:56.675Z,13.30
2023-03-07T18:36:25.278Z,13.30
2023-03-07T18:38:52.686Z,13.20
2023-03-07T18:41:24.664Z,13.10
2023-03-07T18:43:56.684Z,13.10
2023-03-07T18:46:27.138Z,13.00
2023-03-07T18:48:56.720Z,13.00
2023-03-07T18:51:25.993Z,13.00
2023-03-07T18:53:59.499Z,12.90
2023-03-07T18:56:27.710Z,12.90
2023-03-07T18:58:56.709Z,12.90
2023-03-07T19:01:29.663Z,13.00
2023-03-07T19:04:00.228Z,13.00
2023-03-07T19:06:39.613Z,13.00
2023-03-07T19:09:09.671Z,13.00
2023-03-07T19:11:36.995Z,13.00
2023-03-07T19:14:04.797Z,13.00
2023-03-07T19:16:32.178Z,13.00
2023-03-07T19:19:00.059Z,12.90
2023-03-07T19:21:29.494Z,12.80
2023-03-07T19:23:58.967Z,12.80
2023-03-07T19:26:26.274Z,12.70
2023-03-07T19:28:54.804Z,12.70
2023-03-07T19:31:28.029Z,12.70
2023-03-07T19:33:55.882Z,12.70
2023-03-07T19:36:32.060Z,12.70
2023-03-07T19:38:59.523Z,12.70
2023-03-07T19:41:28.651Z,12.80
2023-03-07T19:43:57.009Z,12.80
2023-03-07T19:46:25.281Z,12.80
2023-03-07T19:48:52.554Z,12.80
2023-03-07T19:51:22.640Z,12.80
2023-03-07T19:53:50.912Z,12.80
2023-03-07T19:56:22.478Z,12.70
2023-03-07T19:58:50.325Z,12.50
2023-03-07T20:01:20.485Z,12.50
2023-03-07T20:03:48.511Z,12.30
2023-03-07T20:06:19.853Z,12.20
2023-03-07T20:08:51.893Z,12.20
2023-03-07T20:11:30.391Z,12.10
2023-03-07T20:13:59.842Z,12.10
2023-03-07T20:16:29.490Z,12.00
2023-03-07T20:18:59.668Z,12.00
2023-03-07T20:21:28.763Z,12.00
2023-03-07T20:23:59.547Z,12.00
2023-03-07T20:26:33.235Z,12.00
2023-03-07T20:29:01.951Z,11.90
2023-03-07T20:31:30.724Z,11.80
2023-03-07T20:33:59.757Z,11.70
2023-03-07T20:36:30.211Z,11.70
2023-03-07T20:38:59.756Z,11.70
2023-03-07T20:41:29.230Z,11.70
2023-03-07T20:44:03.509Z,11.70
2023-03-07T20:46:32.129Z,11.60
2023-03-07T20:49:01.415Z,11.60
2023-03-07T20:51:31.390Z,11.60
2023-03-07T20:54:06.491Z,11.50
2023-03-07T20:56:35.610Z,11.50
2023-03-07T20:59:03.407Z,11.50
2023-03-07T21:01:32.581Z,11.40
2023-03-07T21:04:06.100Z,11.30
2023-03-07T21:06:34.515Z,11.10
2023-03-07T21:09:06.297Z,11.00
2023-03-07T21:11:35.466Z,10.90
2023-03-07T21:14:03.669Z,10.70
2023-03-07T21:16:31.492Z,10.60
2023-03-07T21:19:01.720Z,10.50
2023-03-07T21:21:31.685Z,10.50
2023-03-07T21:23:59.845Z,10.50
2023-03-07T21:26:31.320Z,10.60
2023-03-07T21:28:59.679Z,10.50
2023-03-07T21:31:32.080Z,10.40
2023-03-07T21:34:13.593Z,10.40
2023-03-07T21:36:48.744Z,10.50
2023-03-07T21:39:24.170Z,10.50
2023-03-07T21:41:51.848Z,10.40
2023-03-07T21:44:19.164Z,10.40
2023-03-07T21:46:46.927Z,10.50
2023-03-07T21:49:21.765Z,10.60
2023-03-07T21:51:50.113Z,10.70
2023-03-07T21:54:17.411Z,10.60
2023-03-07T21:56:44.967Z,10.60
2023-03-07T21:59:13.210Z,10.60
2023-03-07T22:01:44.883Z,10.50
2023-03-07T22:04:12.504Z,10.60
2023-03-07T22:06:39.755Z,10.70
2023-03-07T22:09:07.094Z,10.80
2023-03-07T22:11:34.373Z,10.80
2023-03-07T22:14:01.900Z,10.80
2023-03-07T22:16:29.227Z,10.80
2023-03-07T22:18:57.385Z,10.80
2023-03-07T22:21:26.779Z,10.80
2023-03-07T22:23:59.597Z,10.70
2023-03-07T22:26:28.869Z,10.70
2023-03-07T22:28:56.265Z,10.70
2023-03-07T22:31:24.716Z,10.80
2023-03-07T22:33:53.180Z,11.00
2023-03-07T22:36:20.677Z,11.10
2023-03-07T22:38:53.371Z,11.10
2023-03-07T22:41:22.683Z,11.10
2023-03-07T22:43:50.022Z,11.10
2023-03-07T22:46:17.400Z,11.10
2023-03-07T22:48:45.148Z,10.90
2023-03-07T22:51:14.847Z,10.90
2023-03-07T22:53:42.235Z,10.90
2023-03-07T22:56:30.776Z,10.90
2023-03-07T22:58:58.673Z,10.90
2023-03-07T23:01:28.394Z,10.90
2023-03-07T23:03:58.908Z,11.00
2023-03-07T23:06:29.520Z,11.00
2023-03-07T23:08:59.592Z,11.10
2023-03-07T23:11:29.973Z,11.10
2023-03-07T23:13:57.543Z,11.00
2023-03-07T23:16:28.176Z,11.10
2023-03-07T23:18:57.487Z,11.00
2023-03-07T23:21:27.823Z,11.00
2023-03-07T23:23:55.779Z,10.90
2023-03-07T23:26:28.974Z,10.80
2023-03-07T23:28:56.951Z,10.80
2023-03-07T23:31:30.487Z,10.80
2023-03-07T23:34:00.329Z,10.80
2023-03-07T23:36:30.029Z,10.80
2023-03-07T23:38:58.434Z,10.80
2023-03-07T23:41:26.717Z,10.80
2023-03-07T23:43:59.412Z,10.70
2023-03-07T23:46:28.136Z,10.70
2023-03-07T23:48:56.322Z,10.70
2023-03-07T23:51:24.403Z,10.60
2023-03-07T23:53:52.735Z,10.60
2023-03-07T23:56:20.247Z,10.60
2023-03-07T23:58:51.754Z,10.50
